Time;durP1;ratioP1;P1;durP2;ratioP2;P2;SDS_P1;SDS_P2;PMS_P1;PMS_P2;Temp;Humidity;BMP_temperature;BMP_pressure;BME280_temperature;BME280_humidity;BME280_pressure;Samples;Min_cycle;Max_cycle;Signal;HPM_P1;HPM_P2
2023/04/01 00:01:02;;;;;;;1.00;0.80;;;10.60;99.90;;;;;;5051502;28;20546;-72
2023/04/01 00:03:29;;;;;;;1.20;1.10;;;10.60;99.90;;;;;;5052060;28;20885;-72
2023/04/01 00:05:57;;;;;;;1.63;0.87;;;10.70;99.90;;;;;;5053094;28;20444;-72
2023/04/01 00:08:24;;;;;;;3.10;1.27;;;10.60;99.90;;;;;;5052200;28;20443;-72
2023/04/01 00:10:52;;;;;;;0.90;0.77;;;10.60;99.90;;;;;;5052190;28;20437;-72
2023/04/01 00:13:20;;;;;;;1.70;1.00;;;10.60;99.90;;;;;;5050127;28;20426;-72
2023/04/01 00:15:47;;;;;;;1.20;1.10;;;10.50;99.90;;;;;;5050782;28;20472;-72
2023/04/01 00:18:15;;;;;;;3.07;0.93;;;10.50;99.90;;;;;;5054121;28;20460;-72
2023/04/01 00:20:45;;;;;;;1.03;0.90;;;10.50;99.90;;;;;;5033243;28;20878;-73
2023/04/01 00:23:12;;;;;;;1.27;1.03;;;10.60;99.90;;;;;;5050944;28;20454;-72
2023/04/01 00:25:39;;;;;;;2.20;1.40;;;10.50;99.90;;;;;;5050995;28;20464;-72
2023/04/01 00:28:09;;;;;;;3.53;1.00;;;10.50;99.90;;;;;;5050691;28;20434;-72
2023/04/01 00:30:37;;;;;;;1.33;1.00;;;10.50;99.90;;;;;;5050622;28;20438;-72
2023/04/01 00:33:04;;;;;;;3.40;1.20;;;10.40;99.90;;;;;;5050803;28;20470;-72
2023/04/01 00:35:32;;;;;;;1.20;1.10;;;10.40;99.90;;;;;;5050895;28;20449;-72
2023/04/01 00:38:00;;;;;;;2.07;1.40;;;10.30;99.90;;;;;;5051000;28;20474;-72
2023/04/01 00:40:29;;;;;;;2.70;1.10;;;10.40;99.90;;;;;;5051583;28;20886;-72
2023/04/01 00:42:57;;;;;;;1.53;1.00;;;10.40;99.90;;;;;;5050764;28;20449;-72
2023/04/01 00:45:35;;;;;;;1.27;1.17;;;10.40;99.90;;;;;;5050946;28;20538;-72
2023/04/01 00:48:05;;;;;;;3.20;1.43;;;10.30;99.90;;;;;;5053174;28;20491;-72
2023/04/01 00:50:34;;;;;;;1.90;1.23;;;10.30;99.90;;;;;;5051753;28;20437;-72
2023/04/01 00:53:03;;;;;;;1.53;0.90;;;10.30;99.90;;;;;;5050497;28;20448;-72
2023/04/01 00:55:34;;;;;;;2.70;1.33;;;10.20;99.90;;;;;;5050168;28;21062;-72
2023/04/01 00:58:05;;;;;;;3.77;0.90;;;10.20;99.90;;;;;;5050449;28;20558;-72
2023/04/01 01:00:35;;;;;;;1.53;0.90;;;10.20;99.90;;;;;;5050279;28;20481;-72
2023/04/01 01:03:02;;;;;;;3.23;0.77;;;10.20;99.90;;;;;;5050080;28;20453;-72
2023/04/01 01:05:43;;;;;;;1.20;0.90;;;10.20;99.90;;;;;;5050573;28;20454;-72
2023/04/01 01:08:20;;;;;;;1.63;1.47;;;10.10;99.90;;;;;;5052992;28;20552;-72
2023/04/01 01:10:51;;;;;;;1.47;1.20;;;10.20;99.90;;;;;;5050998;28;20461;-72
2023/04/01 01:13:26;;;;;;;1.93;1.10;;;10.20;99.90;;;;;;5050228;28;20511;-72
2023/04/01 01:16:00;;;;;;;1.43;1.30;;;10.10;99.90;;;;;;5050563;28;20520;-72
2023/04/01 01:18:35;;;;;;;1.70;1.40;;;10.20;99.90;;;;;;5060255;28;20777;-72
2023/04/01 01:21:31;;;;;;;1.30;1.10;;;10.20;99.90;;;;;;5050621;28;20427;-72
2023/04/01 01:24:32;;;;;;;1.57;1.30;;;10.20;99.90;;;;;;5052104;28;20845;-72
2023/04/01 01:27:03;;;;;;;1.70;1.07;;;10.20;99.90;;;;;;5054318;28;20566;-72
2023/04/01 01:29:50;;;;;;;1.50;1.10;;;10.20;99.90;;;;;;5054386;28;20518;-72
2023/04/01 01:32:36;;;;;;;1.37;1.27;;;10.20;99.90;;;;;;5054059;28;20447;-72
2023/04/01 01:35:31;;;;;;;5.67;1.23;;;10.20;99.90;;;;;;5053867;28;20467;-72
2023/04/01 01:38:02;;;;;;;0.90;0.70;;;10.30;99.90;;;;;;5044277;28;21075;-72
2023/04/01 01:40:31;;;;;;;1.50;0.90;;;10.20;99.90;;;;;;5053914;28;20538;-72
2023/04/01 01:43:04;;;;;;;1.50;0.90;;;10.20;99.90;;;;;;5054631;28;20558;-72
2023/04/01 01:45:35;;;;;;;3.00;1.00;;;10.20;99.90;;;;;;5055389;28;20455;-72
2023/04/01 01:48:03;;;;;;;1.00;0.83;;;10.20;99.90;;;;;;5053565;28;20528;-72
2023/04/01 01:50:32;;;;;;;2.10;1.40;;;10.20;99.90;;;;;;5053726;28;20414;-72
2023/04/01 01:53:07;;;;;;;1.00;0.70;;;10.20;99.90;;;;;;5053834;28;20433;-72
2023/04/01 01:55:36;;;;;;;2.37;1.10;;;10.20;99.90;;;;;;5053738;28;20462;-72
2023/04/01 01:58:08;;;;;;;2.70;1.10;;;10.20;99.90;;;;;;5053235;28;20999;-72
2023/04/01 02:00:36;;;;;;;1.70;1.30;;;10.20;99.90;;;;;;5053599;28;20509;-72
2023/04/01 02:03:05;;;;;;;1.17;0.90;;;10.10;99.90;;;;;;5053481;28;20999;-72
2023/04/01 02:05:34;;;;;;;2.50;1.13;;;10.10;99.90;;;;;;5034049;28;20616;-72
2023/04/01 02:08:05;;;;;;;1.17;0.83;;;10.10;99.90;;;;;;5053387;28;20471;-72
2023/04/01 02:10:37;;;;;;;1.00;0.83;;;10.10;99.90;;;;;;5056625;28;20460;-72
2023/04/01 02:13:08;;;;;;;1.17;1.07;;;10.10;99.90;;;;;;5057479;28;20514;-72
2023/04/01 02:15:42;;;;;;;1.77;1.10;;;10.10;99.90;;;;;;5055626;28;20463;-72
2023/04/01 02:18:11;;;;;;;3.63;1.10;;;10.10;99.90;;;;;;5056449;28;20467;-72
2023/04/01 02:20:40;;;;;;;1.30;1.07;;;10.00;99.90;;;;;;5052939;28;20538;-72
2023/04/01 02:23:09;;;;;;;5.00;0.90;;;10.00;99.90;;;;;;5053751;28;20930;-72
2023/04/01 02:25:38;;;;;;;1.50;1.40;;;10.00;99.90;;;;;;5056638;28;20505;-72
2023/04/01 02:28:07;;;;;;;1.20;1.10;;;10.10;99.90;;;;;;5054127;28;20487;-72
2023/04/01 02:30:38;;;;;;;1.00;0.80;;;10.00;99.90;;;;;;5053021;28;20893;-72
2023/04/01 02:33:07;;;;;;;1.00;0.70;;;10.10;99.90;;;;;;5052952;28;20490;-72
2023/04/01 02:35:36;;;;;;;0.93;0.70;;;10.00;99.90;;;;;;5051885;28;20465;-72
2023/04/01 02:38:05;;;;;;;1.60;0.90;;;10.00;99.90;;;;;;5052845;28;20472;-72
2023/04/01 02:40:43;;;;;;;1.00;0.80;;;10.00;99.90;;;;;;5052802;28;20429;-72
2023/04/01 02:43:11;;;;;;;3.93;1.30;;;10.00;99.90;;;;;;5054081;28;20450;-72
2023/04/01 02:45:38;;;;;;;1.40;0.90;;;9.90;99.90;;;;;;5053028;28;20535;-72
2023/04/01 02:48:05;;;;;;;1.23;0.90;;;9.90;99.90;;;;;;5053149;28;20442;-72
2023/04/01 02:50:34;;;;;;;1.63;0.90;;;10.00;99.90;;;;;;5053441;28;20451;-72
2023/04/01 02:53:02;;;;;;;1.20;1.00;;;10.00;99.90;;;;;;5053649;28;20442;-72
2023/04/01 02:55:31;;;;;;;1.07;0.97;;;9.90;99.90;;;;;;5053411;28;20453;-72
2023/04/01 02:57:57;;;;;;;1.53;1.10;;;9.90;99.90;;;;;;5052519;28;20691;-72
2023/04/01 03:00:25;;;;;;;1.80;1.00;;;10.00;99.90;;;;;;5052239;28;20508;-72
2023/04/01 03:02:52;;;;;;;1.03;0.80;;;10.00;99.90;;;;;;5051909;28;20428;-72
2023/04/01 03:05:19;;;;;;;1.33;1.23;;;10.00;99.90;;;;;;5052503;28;20884;-72
2023/04/01 03:07:46;;;;;;;1.00;0.80;;;10.00;99.90;;;;;;5051991;28;20555;-72
2023/04/01 03:10:13;;;;;;;1.00;0.77;;;10.00;99.90;;;;;;5052263;28;20451;-72
2023/04/01 03:12:42;;;;;;;1.00;0.80;;;10.00;99.90;;;;;;5052441;28;20446;-72
2023/04/01 03:15:11;;;;;;;1.07;0.83;;;10.00;99.90;;;;;;5058131;28;20472;-72
2023/04/01 03:17:38;;;;;;;1.50;0.90;;;10.00;99.90;;;;;;5053043;28;21040;-72
2023/04/01 03:20:08;;;;;;;1.00;0.80;;;9.90;99.90;;;;;;5052062;28;20410;-72
2023/04/01 03:22:35;;;;;;;1.13;0.90;;;10.00;99.90;;;;;;5051835;28;20450;-72
2023/04/01 03:25:02;;;;;;;1.00;0.90;;;9.90;99.90;;;;;;5051531;28;21015;-71
2023/04/01 03:27:29;;;;;;;2.90;1.47;;;9.90;99.90;;;;;;5051811;28;20463;-72
2023/04/01 03:29:57;;;;;;;1.20;0.93;;;9.90;99.90;;;;;;5051820;28;20424;-72
2023/04/01 03:32:25;;;;;;;1.13;0.87;;;9.90;99.90;;;;;;5051945;28;20868;-72
2023/04/01 03:34:51;;;;;;;1.07;0.97;;;9.90;99.90;;;;;;5051198;28;20570;-72
2023/04/01 03:37:18;;;;;;;1.20;0.90;;;10.00;99.90;;;;;;5051466;28;20442;-72
2023/04/01 03:39:45;;;;;;;1.20;0.90;;;9.90;99.90;;;;;;5051343;28;20538;-72
2023/04/01 03:42:12;;;;;;;1.77;1.00;;;9.90;99.90;;;;;;5051482;28;20968;-72
2023/04/01 03:44:39;;;;;;;1.30;0.97;;;9.90;99.90;;;;;;5051191;28;20426;-72
2023/04/01 03:47:08;;;;;;;1.30;1.07;;;9.90;99.90;;;;;;5051369;28;20442;-72
2023/04/01 03:49:36;;;;;;;1.20;1.00;;;10.00;99.90;;;;;;5051119;28;20429;-72
2023/04/01 03:52:03;;;;;;;0.90;0.70;;;10.00;99.90;;;;;;5051174;28;20462;-72
2023/04/01 03:54:29;;;;;;;1.63;0.80;;;10.00;99.90;;;;;;5052268;28;20414;-72
2023/04/01 03:56:57;;;;;;;1.10;0.80;;;10.00;99.90;;;;;;5052822;28;20522;-72
2023/04/01 03:59:24;;;;;;;1.20;1.10;;;10.00;99.90;;;;;;5052283;28;20882;-72
2023/04/01 04:01:51;;;;;;;1.13;0.93;;;10.00;99.90;;;;;;5052303;28;20534;-72
2023/04/01 04:04:19;;;;;;;2.90;0.80;;;10.00;99.90;;;;;;5053165;28;20872;-72
2023/04/01 04:06:46;;;;;;;1.77;1.47;;;10.00;99.90;;;;;;5050934;28;20498;-72
2023/04/01 04:09:13;;;;;;;1.27;0.97;;;10.00;99.90;;;;;;5051024;28;20509;-72
2023/04/01 04:11:40;;;;;;;1.73;1.07;;;9.90;99.90;;;;;;5051262;28;20534;-72
2023/04/01 04:14:07;;;;;;;1.60;1.00;;;9.90;99.90;;;;;;5062981;28;20493;-72
2023/04/01 04:16:37;;;;;;;1.53;1.17;;;9.90;99.90;;;;;;5050944;28;20544;-72
2023/04/01 04:19:04;;;;;;;1.13;0.87;;;10.00;99.90;;;;;;5050786;28;20430;-72
2023/04/01 04:21:33;;;;;;;1.53;0.97;;;9.90;99.90;;;;;;5051225;28;20956;-72
2023/04/01 04:24:00;;;;;;;1.20;1.10;;;9.90;99.90;;;;;;5050412;28;20951;-72
2023/04/01 04:26:28;;;;;;;1.30;1.07;;;9.90;99.90;;;;;;5050401;28;20434;-72
2023/04/01 04:28:56;;;;;;;1.83;0.97;;;9.90;99.90;;;;;;5050275;28;20476;-72
2023/04/01 04:31:25;;;;;;;1.20;1.07;;;10.00;99.90;;;;;;5050418;28;20440;-72
2023/04/01 04:33:52;;;;;;;1.67;1.53;;;10.00;99.90;;;;;;5050540;28;20835;-72
2023/04/01 04:36:20;;;;;;;6.73;1.40;;;10.00;99.90;;;;;;5050126;28;20484;-72
2023/04/01 04:38:49;;;;;;;2.50;1.37;;;10.00;99.90;;;;;;5050312;28;20450;-72
2023/04/01 04:41:17;;;;;;;1.43;0.97;;;10.10;99.90;;;;;;5050127;28;20459;-72
2023/04/01 04:43:50;;;;;;;4.70;1.07;;;10.00;99.90;;;;;;5050256;28;20433;-71
2023/04/01 04:46:17;;;;;;;2.07;1.07;;;10.10;99.90;;;;;;5050220;28;20469;-72
2023/04/01 04:48:45;;;;;;;1.00;0.70;;;10.00;99.90;;;;;;5050154;28;20454;-72
2023/04/01 04:51:16;;;;;;;1.30;0.80;;;10.10;99.90;;;;;;5050014;28;20472;-72
2023/04/01 04:53:43;;;;;;;1.00;0.87;;;10.10;99.90;;;;;;5050217;28;20931;-72
2023/04/01 04:56:11;;;;;;;1.53;1.43;;;10.00;99.90;;;;;;5050135;28;20544;-72
2023/04/01 04:58:39;;;;;;;1.10;1.00;;;10.00;99.90;;;;;;5052843;28;20478;-72
2023/04/01 05:01:11;;;;;;;1.27;0.83;;;10.00;99.90;;;;;;5056958;28;20504;-72
2023/04/01 05:03:38;;;;;;;1.17;1.07;;;10.00;99.90;;;;;;5056483;28;20949;-72
2023/04/01 05:06:06;;;;;;;1.60;1.20;;;10.10;99.90;;;;;;5056647;28;20526;-72
2023/04/01 05:08:34;;;;;;;2.47;1.33;;;10.10;99.90;;;;;;5058205;28;20422;-71
2023/04/01 05:11:01;;;;;;;2.17;1.10;;;10.00;99.90;;;;;;5061228;28;20422;-72
2023/04/01 05:13:29;;;;;;;1.00;0.83;;;10.00;99.90;;;;;;5062924;28;20450;-72
2023/04/01 05:15:59;;;;;;;1.00;0.80;;;10.10;99.90;;;;;;5056659;28;20465;-72
2023/04/01 05:18:25;;;;;;;2.20;0.90;;;10.00;99.90;;;;;;5056562;28;20931;-72
2023/04/01 05:20:54;;;;;;;1.30;1.10;;;10.10;99.90;;;;;;5057269;28;20453;-72
2023/04/01 05:23:23;;;;;;;0.93;0.80;;;10.10;99.90;;;;;;5056448;28;20521;-72
2023/04/01 05:25:50;;;;;;;1.03;0.90;;;10.10;99.90;;;;;;5057105;28;20481;-72
2023/04/01 05:28:17;;;;;;;1.30;1.07;;;10.10;99.90;;;;;;5056397;28;20447;-72
2023/04/01 05:30:46;;;;;;;1.63;1.20;;;10.10;99.90;;;;;;5056664;28;20447;-72
2023/04/01 05:33:14;;;;;;;1.30;1.10;;;10.10;99.90;;;;;;5056906;28;20470;-72
2023/04/01 05:35:42;;;;;;;1.40;0.93;;;10.10;99.90;;;;;;5056642;28;20487;-72
2023/04/01 05:38:09;;;;;;;1.50;1.23;;;10.20;99.90;;;;;;5056809;28;20559;-72
2023/04/01 05:40:35;;;;;;;1.57;0.90;;;10.20;99.90;;;;;;5056818;28;20513;-72
2023/04/01 05:43:03;;;;;;;1.80;1.07;;;10.20;99.90;;;;;;5057843;28;20497;-72
2023/04/01 05:45:29;;;;;;;1.00;0.80;;;10.20;99.90;;;;;;5056192;28;20504;-72
2023/04/01 05:47:58;;;;;;;1.60;1.00;;;10.30;99.90;;;;;;5056051;28;20550;-72
2023/04/01 05:50:26;;;;;;;1.57;1.00;;;10.30;99.90;;;;;;5056456;28;20426;-72
2023/04/01 05:52:54;;;;;;;1.10;1.00;;;10.40;99.90;;;;;;5056284;28;20475;-72
2023/04/01 05:55:21;;;;;;;2.43;0.90;;;10.40;99.90;;;;;;5056485;28;20500;-72
2023/04/01 05:57:49;;;;;;;6.13;1.20;;;10.40;99.90;;;;;;5056283;28;20463;-72
2023/04/01 06:00:19;;;;;;;0.93;0.80;;;10.50;99.90;;;;;;5056348;28;20526;-72
2023/04/01 06:02:47;;;;;;;1.70;0.90;;;10.50;99.90;;;;;;5055968;28;20450;-72
2023/04/01 06:05:19;;;;;;;1.47;1.10;;;10.40;99.90;;;;;;5056218;28;21023;-72
2023/04/01 06:07:47;;;;;;;1.43;0.90;;;10.40;99.90;;;;;;5056328;28;20506;-72
2023/04/01 06:10:16;;;;;;;1.00;0.80;;;10.40;99.90;;;;;;5060372;28;20452;-72
2023/04/01 06:12:57;;;;;;;1.50;1.10;;;10.30;99.90;;;;;;5053984;28;20513;-72
2023/04/01 06:15:37;;;;;;;2.60;1.87;;;10.30;99.90;;;;;;5052842;28;20996;-71
2023/04/01 06:18:51;;;;;;;1.77;1.30;;;10.30;99.90;;;;;;5052824;28;21212;-71
2023/04/01 06:21:43;;;;;;;2.20;1.00;;;10.30;99.90;;;;;;5056778;28;20605;-71
2023/04/01 06:24:27;;;;;;;1.20;1.00;;;10.40;99.90;;;;;;5050987;28;20805;-71
2023/04/01 06:27:01;;;;;;;1.20;1.10;;;10.40;99.90;;;;;;5053202;28;20459;-72
2023/04/01 06:29:59;;;;;;;1.93;1.30;;;10.50;99.90;;;;;;5053501;28;20531;-71
2023/04/01 06:32:53;;;;;;;2.50;1.47;;;10.50;99.90;;;;;;5044685;28;20862;-72
2023/04/01 06:35:48;;;;;;;1.57;1.03;;;10.50;99.90;;;;;;5053333;28;20854;-72
2023/04/01 06:38:29;;;;;;;2.90;1.40;;;10.60;99.90;;;;;;5049304;28;20546;-71
2023/04/01 06:41:27;;;;;;;1.63;1.50;;;10.60;99.90;;;;;;5052239;28;20546;-72
2023/04/01 06:44:05;;;;;;;2.10;1.77;;;10.60;99.90;;;;;;5052287;28;20542;-71
2023/04/01 06:46:43;;;;;;;1.30;0.90;;;10.60;99.90;;;;;;5052454;28;20546;-71
2023/04/01 06:49:30;;;;;;;1.30;1.10;;;10.60;99.90;;;;;;5052063;28;20878;-71
2023/04/01 06:52:03;;;;;;;2.23;1.20;;;10.50;99.90;;;;;;5052207;28;20493;-71
2023/04/01 06:54:35;;;;;;;2.03;1.00;;;10.50;99.90;;;;;;5052231;28;20445;-71
2023/04/01 06:57:20;;;;;;;2.30;1.40;;;10.50;99.90;;;;;;5051821;28;20859;-71
2023/04/01 06:59:48;;;;;;;1.00;0.70;;;10.40;99.90;;;;;;5052354;28;20777;-71
2023/04/01 07:02:25;;;;;;;1.57;1.10;;;10.40;99.90;;;;;;5051926;28;20422;-71
2023/04/01 07:04:55;;;;;;;4.20;2.57;;;10.40;99.90;;;;;;5051907;28;21093;-71
2023/04/01 07:07:30;;;;;;;1.70;1.20;;;10.50;99.90;;;;;;5051995;28;20547;-71
2023/04/01 07:10:01;;;;;;;1.43;0.80;;;10.40;99.90;;;;;;5057203;28;20437;-71
2023/04/01 07:12:38;;;;;;;1.10;0.90;;;10.50;99.90;;;;;;5052503;28;20454;-71
2023/04/01 07:15:17;;;;;;;2.97;1.10;;;10.50;99.90;;;;;;5051720;28;20428;-71
2023/04/01 07:17:46;;;;;;;1.37;1.10;;;10.60;99.90;;;;;;5051974;28;20570;-71
2023/04/01 07:20:20;;;;;;;1.90;1.13;;;10.60;99.90;;;;;;5053217;28;20526;-71
2023/04/01 07:22:50;;;;;;;1.30;1.10;;;10.60;99.90;;;;;;5051598;28;21006;-71
2023/04/01 07:25:21;;;;;;;1.40;1.00;;;10.50;99.90;;;;;;5051954;28;20402;-71
2023/04/01 07:27:50;;;;;;;1.00;0.83;;;10.60;99.90;;;;;;5051735;28;20460;-71
2023/04/01 07:30:19;;;;;;;2.17;1.10;;;10.50;99.90;;;;;;5051548;28;20448;-71
2023/04/01 07:32:50;;;;;;;2.00;1.63;;;10.50;99.90;;;;;;5052671;28;20565;-71
2023/04/01 07:35:26;;;;;;;1.67;1.37;;;10.60;99.90;;;;;;5054838;28;20514;-71
2023/04/01 07:38:06;;;;;;;1.77;1.27;;;10.60;99.90;;;;;;5051232;28;20580;-71
2023/04/01 07:40:41;;;;;;;2.03;1.40;;;10.70;99.90;;;;;;5051327;28;20461;-71
2023/04/01 07:43:48;;;;;;;2.63;2.03;;;10.60;99.90;;;;;;5051144;28;20990;-71
2023/04/01 07:46:25;;;;;;;1.50;1.40;;;10.60;99.90;;;;;;5009165;28;20460;-71
2023/04/01 07:48:59;;;;;;;1.63;1.20;;;10.70;99.90;;;;;;5009022;28;20431;-71
2023/04/01 07:51:30;;;;;;;2.47;1.80;;;10.70;99.90;;;;;;5034217;28;20956;-71
2023/04/01 07:54:07;;;;;;;2.90;2.30;;;10.70;99.90;;;;;;5051678;28;20506;-71
2023/04/01 07:56:44;;;;;;;5.53;1.83;;;10.80;99.90;;;;;;5051653;28;20458;-71
2023/04/01 07:59:22;;;;;;;3.73;3.43;;;10.80;99.90;;;;;;5050928;28;20518;-71
2023/04/01 08:01:55;;;;;;;2.90;2.13;;;11.00;99.90;;;;;;5051480;28;20466;-71
2023/04/01 08:04:47;;;;;;;2.03;1.30;;;11.00;99.90;;;;;;5051418;28;20510;-71
2023/04/01 08:07:18;;;;;;;2.67;2.37;;;11.00;99.90;;;;;;5052067;28;20455;-71
2023/04/01 08:09:53;;;;;;;2.53;1.80;;;11.00;99.90;;;;;;5052059;28;20427;-71
2023/04/01 08:12:35;;;;;;;2.83;2.40;;;11.00;99.90;;;;;;5050978;28;20493;-71
2023/04/01 08:15:21;;;;;;;3.53;2.10;;;11.00;99.90;;;;;;5050679;28;20511;-71
2023/04/01 08:17:56;;;;;;;3.67;1.67;;;11.00;99.90;;;;;;5050464;28;20490;-71
2023/04/01 08:20:33;;;;;;;3.53;1.93;;;11.00;99.90;;;;;;5050653;28;20402;-71
2023/04/01 08:23:05;;;;;;;2.43;1.93;;;10.90;99.90;;;;;;5050643;28;20478;-71
2023/04/01 08:25:34;;;;;;;1.90;1.50;;;11.00;99.90;;;;;;5050437;28;20432;-71
2023/04/01 08:28:14;;;;;;;3.13;1.90;;;11.10;99.90;;;;;;5050204;28;20472;-71
2023/04/01 08:30:44;;;;;;;2.83;1.80;;;11.00;99.90;;;;;;5050286;28;20424;-71
2023/04/01 08:33:16;;;;;;;3.57;1.60;;;11.10;99.90;;;;;;5049852;28;20406;-71
2023/04/01 08:35:50;;;;;;;4.00;2.53;;;11.20;99.90;;;;;;5051170;28;20406;-71
2023/04/01 08:38:21;;;;;;;4.20;2.30;;;11.10;99.90;;;;;;5050155;28;20471;-71
2023/04/01 08:40:58;;;;;;;1.63;1.43;;;10.90;99.90;;;;;;5050024;28;20542;-71
2023/04/01 08:43:56;;;;;;;3.60;2.37;;;10.90;99.90;;;;;;5050260;28;20522;-72
2023/04/01 08:46:46;;;;;;;2.80;1.47;;;11.00;99.90;;;;;;5053326;28;20517;-71
2023/04/01 08:49:28;;;;;;;3.63;1.87;;;11.00;99.90;;;;;;5050696;28;20485;-71
2023/04/01 08:52:19;;;;;;;2.43;1.80;;;10.80;99.90;;;;;;5050202;28;20511;-71
2023/04/01 08:55:15;;;;;;;2.67;2.47;;;10.80;99.90;;;;;;5050518;28;20443;-71
2023/04/01 08:57:51;;;;;;;2.03;1.40;;;10.90;99.90;;;;;;5033414;28;20574;-71
2023/04/01 09:00:30;;;;;;;2.50;2.00;;;10.90;99.90;;;;;;5049972;28;20876;-71
2023/04/01 09:03:17;;;;;;;6.30;2.97;;;10.90;99.90;;;;;;5050060;28;20493;-71
2023/04/01 09:06:21;;;;;;;3.13;2.43;;;10.90;99.90;;;;;;5058907;28;20445;-71
2023/04/01 09:09:02;;;;;;;7.33;3.00;;;11.00;99.90;;;;;;5052377;28;20486;-71
2023/04/01 09:11:43;;;;;;;2.03;1.67;;;11.10;99.90;;;;;;5050356;28;20464;-71
2023/04/01 09:14:30;;;;;;;2.13;1.67;;;11.10;99.90;;;;;;5051114;28;20412;-71
2023/04/01 09:17:21;;;;;;;6.20;2.23;;;11.10;99.90;;;;;;5049943;28;20600;-71
2023/04/01 09:20:18;;;;;;;4.50;3.70;;;11.10;99.90;;;;;;5049753;28;20471;-71
2023/04/01 09:22:58;;;;;;;3.17;2.87;;;11.00;99.90;;;;;;5050013;28;20775;-71
2023/04/01 09:25:54;;;;;;;3.23;1.83;;;11.00;99.90;;;;;;5050015;28;20525;-71
2023/04/01 09:28:26;;;;;;;4.10;2.57;;;11.00;99.90;;;;;;5040685;28;20483;-71
2023/04/01 09:31:26;;;;;;;4.07;3.30;;;10.90;99.90;;;;;;5049585;28;20467;-71
2023/04/01 09:34:29;;;;;;;3.70;2.60;;;10.90;99.90;;;;;;5049628;28;20482;-71
2023/04/01 09:37:15;;;;;;;6.20;2.77;;;11.00;99.90;;;;;;5046109;28;20450;-71
2023/04/01 09:39:53;;;;;;;3.93;2.70;;;10.90;99.90;;;;;;5049752;28;20841;-73
2023/04/01 09:42:45;;;;;;;5.93;2.90;;;10.80;99.90;;;;;;5049305;28;20471;-71
2023/04/01 09:45:31;;;;;;;2.30;1.80;;;10.90;99.90;;;;;;5046319;28;20484;-71
2023/04/01 09:48:20;;;;;;;3.40;2.70;;;10.90;99.90;;;;;;5053167;28;20447;-72
2023/04/01 09:50:57;;;;;;;5.03;3.00;;;11.00;99.90;;;;;;5053517;28;20428;-71
2023/04/01 09:53:43;;;;;;;4.90;2.40;;;11.00;99.90;;;;;;5053537;28;20823;-71
2023/04/01 09:56:35;;;;;;;3.90;2.87;;;10.90;99.90;;;;;;5053254;28;20863;-72
2023/04/01 09:59:48;;;;;;;3.73;2.23;;;11.00;99.90;;;;;;5052972;28;20880;-71
2023/04/01 10:03:00;;;;;;;3.13;2.13;;;11.20;99.90;;;;;;5052964;28;20962;-71
2023/04/01 10:05:58;;;;;;;4.07;2.37;;;11.20;99.90;;;;;;5032930;28;20582;-71
2023/04/01 10:09:06;;;;;;;3.50;2.63;;;11.20;99.90;;;;;;5053040;28;20444;-71
2023/04/01 10:12:05;;;;;;;3.43;2.40;;;11.10;99.90;;;;;;5018654;28;20474;-71
2023/04/01 10:15:23;;;;;;;4.60;2.80;;;11.10;99.90;;;;;;5052952;28;20509;-71
2023/04/01 10:18:23;;;;;;;4.50;2.93;;;11.30;99.90;;;;;;5050062;28;20545;-71
2023/04/01 10:21:07;;;;;;;4.90;3.30;;;11.40;99.90;;;;;;5052912;28;20459;-71
2023/04/01 10:23:46;;;;;;;4.60;3.03;;;11.40;99.90;;;;;;5052736;28;20447;-71
2023/04/01 10:26:37;;;;;;;3.47;2.73;;;11.30;99.90;;;;;;5052880;28;20760;-71
2023/04/01 10:29:57;;;;;;;6.07;4.27;;;11.50;99.90;;;;;;5053220;28;20504;-71
2023/04/01 10:33:15;;;;;;;6.80;4.37;;;11.70;99.90;;;;;;5053172;28;20547;-71
2023/04/01 10:36:20;;;;;;;6.83;3.20;;;11.80;99.90;;;;;;5053612;28;20409;-71
2023/04/01 10:39:35;;;;;;;4.23;2.70;;;11.90;99.90;;;;;;5052535;28;20546;-71
2023/04/01 10:42:38;;;;;;;5.90;4.50;;;11.80;99.90;;;;;;5052399;28;20525;-71
2023/04/01 10:45:36;;;;;;;3.73;2.83;;;11.70;99.90;;;;;;5036296;28;20517;-71
2023/04/01 10:48:45;;;;;;;5.40;3.07;;;11.50;99.90;;;;;;5051906;28;20979;-71
2023/04/01 10:51:18;;;;;;;4.33;2.60;;;11.50;99.90;;;;;;5009854;28;20503;-71
2023/04/01 10:54:17;;;;;;;5.93;2.90;;;11.60;99.90;;;;;;5044099;28;20622;-71
2023/04/01 10:56:50;;;;;;;7.27;4.10;;;11.50;99.90;;;;;;5050883;28;20836;-71
2023/04/01 10:59:47;;;;;;;5.53;2.70;;;11.40;99.90;;;;;;5051696;28;20490;-71
2023/04/01 11:02:48;;;;;;;4.17;2.80;;;11.30;99.90;;;;;;5051997;28;20426;-71
2023/04/01 11:05:45;;;;;;;3.43;2.30;;;11.30;99.90;;;;;;5052081;28;20463;-71
2023/04/01 11:09:02;;;;;;;3.90;2.47;;;11.40;99.90;;;;;;5051829;28;20455;-71
2023/04/01 11:12:07;;;;;;;5.60;3.20;;;11.50;99.90;;;;;;5052112;28;20974;-71
2023/04/01 11:15:10;;;;;;;2.70;2.07;;;11.70;99.90;;;;;;5052591;28;20512;-71
2023/04/01 11:18:13;;;;;;;4.57;2.80;;;11.60;99.90;;;;;;5051618;28;20574;-72
2023/04/01 11:21:04;;;;;;;6.53;3.13;;;11.60;99.90;;;;;;5044749;28;20430;-71
2023/04/01 11:23:51;;;;;;;3.37;2.33;;;11.80;99.90;;;;;;5051596;28;20987;-71
2023/04/01 11:26:33;;;;;;;3.30;2.80;;;11.70;99.90;;;;;;5051806;28;20471;-71
2023/04/01 11:29:36;;;;;;;5.70;2.50;;;11.60;99.90;;;;;;5051769;28;20521;-71
2023/04/01 11:32:13;;;;;;;4.93;4.43;;;11.70;99.90;;;;;;5051953;28;20436;-71
2023/04/01 11:34:55;;;;;;;9.50;3.80;;;11.70;99.90;;;;;;5051685;28;20511;-71
2023/04/01 11:37:34;;;;;;;3.03;2.30;;;11.80;99.90;;;;;;5051474;28;20576;-71
2023/04/01 11:40:13;;;;;;;1.93;1.70;;;11.80;99.90;;;;;;5051013;28;20505;-71
2023/04/01 11:42:46;;;;;;;4.60;3.83;;;11.80;99.90;;;;;;5052113;28;20449;-71
2023/04/01 11:45:32;;;;;;;3.60;2.80;;;11.90;99.90;;;;;;5051343;28;20519;-71
2023/04/01 11:48:29;;;;;;;5.10;3.80;;;11.80;99.90;;;;;;5050172;28;20941;-71
2023/04/01 11:51:26;;;;;;;5.27;3.30;;;11.80;99.90;;;;;;5051108;28;20462;-71
2023/04/01 11:54:03;;;;;;;3.73;3.37;;;11.80;99.90;;;;;;5031866;28;20446;-71
2023/04/01 11:56:52;;;;;;;6.03;4.10;;;11.80;99.90;;;;;;5051127;28;20478;-71
2023/04/01 11:59:57;;;;;;;5.73;4.83;;;11.80;99.90;;;;;;5051216;28;20464;-71
2023/04/01 12:02:35;;;;;;;7.37;4.70;;;11.70;99.90;;;;;;5010048;28;20447;-71
2023/04/01 12:05:33;;;;;;;12.67;6.50;;;11.90;99.90;;;;;;5046395;28;20509;-71
2023/04/01 12:08:16;;;;;;;8.30;6.27;;;12.00;99.90;;;;;;5050647;28;20556;-71
2023/04/01 12:10:50;;;;;;;6.40;5.50;;;11.90;99.90;;;;;;5051859;28;20434;-72
2023/04/01 12:13:33;;;;;;;9.27;6.47;;;12.00;99.90;;;;;;5052147;28;20431;-71
2023/04/01 12:16:15;;;;;;;10.60;6.20;;;11.90;99.90;;;;;;5050535;28;20412;-71
2023/04/01 12:18:47;;;;;;;4.27;3.30;;;11.90;99.90;;;;;;5050624;28;20467;-71
2023/04/01 12:21:23;;;;;;;5.53;4.37;;;11.90;99.90;;;;;;5050580;28;20507;-71
2023/04/01 12:24:20;;;;;;;6.20;5.00;;;11.90;99.90;;;;;;5051035;28;20431;-71
2023/04/01 12:27:23;;;;;;;5.63;3.90;;;11.90;99.90;;;;;;5048439;28;20900;-71
2023/04/01 12:30:03;;;;;;;7.53;3.70;;;11.90;99.90;;;;;;5048309;28;20877;-71
2023/04/01 12:32:41;;;;;;;5.70;3.50;;;11.90;99.90;;;;;;5050062;28;20823;-72
2023/04/01 12:35:25;;;;;;;5.93;3.60;;;11.80;99.90;;;;;;5050130;28;20854;-72
2023/04/01 12:38:16;;;;;;;4.27;3.20;;;11.70;99.90;;;;;;5050604;28;20857;-71
2023/04/01 12:41:04;;;;;;;4.77;3.30;;;11.70;99.90;;;;;;5049964;28;20887;-72
2023/04/01 12:44:00;;;;;;;4.87;3.73;;;11.70;99.90;;;;;;5049851;28;20406;-72
2023/04/01 12:46:35;;;;;;;3.90;3.13;;;11.60;99.90;;;;;;5050206;28;20640;-72
2023/04/01 12:49:24;;;;;;;7.77;4.87;;;11.80;99.90;;;;;;5050086;28;20881;-72
2023/04/01 12:52:13;;;;;;;4.70;3.00;;;12.00;99.90;;;;;;5049680;28;20475;-72
2023/04/01 12:55:13;;;;;;;5.03;3.57;;;11.90;99.90;;;;;;5046799;28;20776;-71
2023/04/01 12:58:05;;;;;;;5.50;3.20;;;12.00;99.90;;;;;;5049901;28;20537;-72
2023/04/01 13:00:55;;;;;;;4.40;2.30;;;11.90;99.90;;;;;;5041298;28;20459;-71
2023/04/01 13:03:52;;;;;;;8.77;3.40;;;11.80;99.90;;;;;;5051076;28;20407;-71
2023/04/01 13:06:32;;;;;;;6.20;3.47;;;11.90;99.90;;;;;;5049838;28;20543;-72
2023/04/01 13:09:08;;;;;;;3.60;2.10;;;11.90;99.90;;;;;;5049482;28;20416;-71
2023/04/01 13:11:47;;;;;;;3.30;3.00;;;12.00;99.90;;;;;;5049525;28;20895;-71
2023/04/01 13:14:42;;;;;;;4.40;4.00;;;11.90;99.90;;;;;;5050200;28;20424;-72
2023/04/01 13:17:19;;;;;;;2.53;1.93;;;12.00;99.90;;;;;;5049343;28;20463;-71
2023/04/01 13:19:52;;;;;;;5.20;3.63;;;12.10;99.90;;;;;;5051263;28;20807;-71
2023/04/01 13:22:24;;;;;;;4.30;2.33;;;12.10;99.90;;;;;;5053635;28;20428;-72
2023/04/01 13:24:58;;;;;;;2.70;2.47;;;12.10;99.90;;;;;;5054239;28;20458;-71
2023/04/01 13:27:35;;;;;;;3.20;2.50;;;12.10;99.90;;;;;;5053755;28;20469;-71
2023/04/01 13:30:21;;;;;;;2.87;1.83;;;12.00;99.90;;;;;;5053745;28;20446;-71
2023/04/01 13:32:56;;;;;;;8.30;3.90;;;12.00;99.90;;;;;;5053421;28;20884;-71
2023/04/01 13:35:35;;;;;;;4.37;3.27;;;12.00;99.90;;;;;;5054162;28;20420;-71
2023/04/01 13:38:19;;;;;;;4.43;2.63;;;12.10;99.90;;;;;;5054550;28;20997;-71
2023/04/01 13:40:56;;;;;;;2.93;2.73;;;12.10;99.90;;;;;;5053173;28;20511;-72
2023/04/01 13:43:29;;;;;;;7.33;3.77;;;12.00;99.90;;;;;;5053106;28;20463;-71